sensor_id;sensor_type;location;lat;lon;timestamp;pressure;altitude;pressure_sealevel;temperature;humidity
14242;BME280;7205;50.864;12.766;2023-05-07T00:02:20;97922.41;;;11.99;86.35
14242;BME280;7205;50.864;12.766;2023-05-07T00:04:48;97920.59;;;12.00;86.56
14242;BME280;7205;50.864;12.766;2023-05-07T00:07:15;97926.34;;;12.03;86.52
14242;BME280;7205;50.864;12.766;2023-05-07T00:09:42;97918.06;;;12.06;86.51
14242;BME280;7205;50.864;12.766;2023-05-07T00:12:09;97920.34;;;12.09;86.12
14242;BME280;7205;50.864;12.766;2023-05-07T00:14:36;97918.53;;;12.10;86.00
14242;BME280;7205;50.864;12.766;2023-05-07T00:17:03;97913.03;;;12.11;84.91
14242;BME280;7205;50.864;12.766;2023-05-07T00:19:31;97911.41;;;12.10;84.39
14242;BME280;7205;50.864;12.766;2023-05-07T00:21:58;97908.94;;;12.09;83.92
14242;BME280;7205;50.864;12.766;2023-05-07T00:24:25;97905.47;;;12.08;84.15
14242;BME280;7205;50.864;12.766;2023-05-07T00:26:51;97910.09;;;12.06;83.42
14242;BME280;7205;50.864;12.766;2023-05-07T00:29:19;97901.53;;;12.04;83.56
14242;BME280;7205;50.864;12.766;2023-05-07T00:31:45;97904.34;;;12.03;83.76
14242;BME280;7205;50.864;12.766;2023-05-07T00:34:12;97905.53;;;12.00;83.50
14242;BME280;7205;50.864;12.766;2023-05-07T00:36:41;97904.41;;;11.95;83.04
14242;BME280;7205;50.864;12.766;2023-05-07T00:39:08;97907.59;;;11.90;83.01
14242;BME280;7205;50.864;12.766;2023-05-07T00:41:34;97905.13;;;11.89;83.50
14242;BME280;7205;50.864;12.766;2023-05-07T00:44:01;97905.28;;;11.87;84.05
14242;BME280;7205;50.864;12.766;2023-05-07T00:46:30;97914.88;;;11.88;84.07
14242;BME280;7205;50.864;12.766;2023-05-07T00:48:57;97913.06;;;11.89;84.47
14242;BME280;7205;50.864;12.766;2023-05-07T00:51:25;97916.16;;;11.92;84.85
14242;BME280;7205;50.864;12.766;2023-05-07T00:53:54;97909.72;;;11.95;84.92
14242;BME280;7205;50.864;12.766;2023-05-07T00:56:21;97913.66;;;11.99;85.51
14242;BME280;7205;50.864;12.766;2023-05-07T00:58:49;97915.13;;;12.01;85.58
14242;BME280;7205;50.864;12.766;2023-05-07T01:01:16;97917.75;;;12.01;85.42
14242;BME280;7205;50.864;12.766;2023-05-07T01:03:42;97920.41;;;12.01;84.96
14242;BME280;7205;50.864;12.766;2023-05-07T01:06:10;97908.97;;;12.01;84.82
14242;BME280;7205;50.864;12.766;2023-05-07T01:08:38;97917.75;;;12.01;85.04
14242;BME280;7205;50.864;12.766;2023-05-07T01:11:07;97915.13;;;12.01;85.00
14242;BME280;7205;50.864;12.766;2023-05-07T01:13:35;97913.28;;;12.02;85.08
14242;BME280;7205;50.864;12.766;2023-05-07T01:16:04;97910.84;;;12.00;84.59
14242;BME280;7205;50.864;12.766;2023-05-07T01:18:31;97912.66;;;12.00;84.78
14242;BME280;7205;50.864;12.766;2023-05-07T01:20:58;97901.41;;;11.98;85.04
14242;BME280;7205;50.864;12.766;2023-05-07T01:23:29;97903.88;;;11.99;85.31
14242;BME280;7205;50.864;12.766;2023-05-07T01:25:56;97910.00;;;12.00;85.50
14242;BME280;7205;50.864;12.766;2023-05-07T01:28:25;97914.28;;;12.01;84.89
14242;BME280;7205;50.864;12.766;2023-05-07T01:31:00;97908.50;;;11.97;84.80
14242;BME280;7205;50.864;12.766;2023-05-07T01:33:29;97912.53;;;11.93;84.88
14242;BME280;7205;50.864;12.766;2023-05-07T01:35:59;97908.59;;;11.89;85.03
14242;BME280;7205;50.864;12.766;2023-05-07T01:38:29;97909.13;;;11.85;85.41
14242;BME280;7205;50.864;12.766;2023-05-07T01:40:57;97914.78;;;11.82;85.35
14242;BME280;7205;50.864;12.766;2023-05-07T01:43:25;97907.19;;;11.79;86.24
14242;BME280;7205;50.864;12.766;2023-05-07T01:45:52;97909.19;;;11.77;86.54
14242;BME280;7205;50.864;12.766;2023-05-07T01:48:19;97905.22;;;11.73;86.86
14242;BME280;7205;50.864;12.766;2023-05-07T01:50:47;97916.81;;;11.72;86.97
14242;BME280;7205;50.864;12.766;2023-05-07T01:53:14;97918.63;;;11.71;87.10
14242;BME280;7205;50.864;12.766;2023-05-07T01:55:43;97925.75;;;11.71;87.63
14242;BME280;7205;50.864;12.766;2023-05-07T01:58:10;97921.63;;;11.68;87.24
14242;BME280;7205;50.864;12.766;2023-05-07T02:00:37;97921.16;;;11.65;87.79
14242;BME280;7205;50.864;12.766;2023-05-07T02:03:06;97925.75;;;11.63;88.08
14242;BME280;7205;50.864;12.766;2023-05-07T02:05:41;97923.28;;;11.61;88.22
14242;BME280;7205;50.864;12.766;2023-05-07T02:08:28;97927.13;;;11.59;88.35
14242;BME280;7205;50.864;12.766;2023-05-07T02:10:57;97927.28;;;11.57;88.04
14242;BME280;7205;50.864;12.766;2023-05-07T02:13:26;97935.22;;;11.57;88.13
14242;BME280;7205;50.864;12.766;2023-05-07T02:15:53;97943.31;;;11.56;88.39
14242;BME280;7205;50.864;12.766;2023-05-07T02:18:21;97935.75;;;11.53;87.83
14242;BME280;7205;50.864;12.766;2023-05-07T02:20:48;97935.09;;;11.51;88.19
14242;BME280;7205;50.864;12.766;2023-05-07T02:23:15;97929.97;;;11.49;88.16
14242;BME280;7205;50.864;12.766;2023-05-07T02:25:42;97931.97;;;11.47;88.84
14242;BME280;7205;50.864;12.766;2023-05-07T02:28:10;97925.22;;;11.45;88.18
14242;BME280;7205;50.864;12.766;2023-05-07T02:30:43;97927.03;;;11.44;88.86
14242;BME280;7205;50.864;12.766;2023-05-07T02:33:12;97942.09;;;11.44;89.01
14242;BME280;7205;50.864;12.766;2023-05-07T02:35:40;97935.63;;;11.46;88.86
14242;BME280;7205;50.864;12.766;2023-05-07T02:38:07;97929.31;;;11.47;89.44
14242;BME280;7205;50.864;12.766;2023-05-07T02:40:36;97928.16;;;11.50;89.73
14242;BME280;7205;50.864;12.766;2023-05-07T02:43:05;97926.16;;;11.52;89.13
14242;BME280;7205;50.864;12.766;2023-05-07T02:45:33;97929.97;;;11.49;89.26
14242;BME280;7205;50.864;12.766;2023-05-07T02:48:01;97946.19;;;11.46;88.98
14242;BME280;7205;50.864;12.766;2023-05-07T02:50:28;97949.19;;;11.43;88.74
14242;BME280;7205;50.864;12.766;2023-05-07T02:52:55;97947.69;;;11.40;88.62
14242;BME280;7205;50.864;12.766;2023-05-07T02:55:22;97950.50;;;11.39;88.74
14242;BME280;7205;50.864;12.766;2023-05-07T02:57:49;97954.00;;;11.39;88.97
14242;BME280;7205;50.864;12.766;2023-05-07T03:00:17;97951.16;;;11.41;90.00
14242;BME280;7205;50.864;12.766;2023-05-07T03:02:54;97947.38;;;11.44;90.15
14242;BME280;7205;50.864;12.766;2023-05-07T03:05:21;97931.97;;;11.47;89.78
14242;BME280;7205;50.864;12.766;2023-05-07T03:07:48;97935.91;;;11.51;90.19
14242;BME280;7205;50.864;12.766;2023-05-07T03:10:15;97928.09;;;11.58;89.81
14242;BME280;7205;50.864;12.766;2023-05-07T03:12:42;97921.66;;;11.60;89.50
14242;BME280;7205;50.864;12.766;2023-05-07T03:15:13;97924.31;;;11.60;89.82
14242;BME280;7205;50.864;12.766;2023-05-07T03:17:39;97930.22;;;11.62;89.73
14242;BME280;7205;50.864;12.766;2023-05-07T03:20:09;97935.50;;;11.62;89.50
14242;BME280;7205;50.864;12.766;2023-05-07T03:22:36;97923.28;;;11.61;89.24
14242;BME280;7205;50.864;12.766;2023-05-07T03:25:04;97937.34;;;11.62;89.40
14242;BME280;7205;50.864;12.766;2023-05-07T03:27:32;97926.59;;;11.63;89.32
14242;BME280;7205;50.864;12.766;2023-05-07T03:29:59;97935.41;;;11.64;88.96
14242;BME280;7205;50.864;12.766;2023-05-07T03:32:27;97928.41;;;11.63;88.73
14242;BME280;7205;50.864;12.766;2023-05-07T03:34:53;97938.16;;;11.62;89.20
14242;BME280;7205;50.864;12.766;2023-05-07T03:37:22;97937.19;;;11.63;89.41
14242;BME280;7205;50.864;12.766;2023-05-07T03:39:49;97937.19;;;11.63;89.37
14242;BME280;7205;50.864;12.766;2023-05-07T03:42:17;97942.66;;;11.62;88.48
14242;BME280;7205;50.864;12.766;2023-05-07T03:44:45;97943.97;;;11.58;88.57
14242;BME280;7205;50.864;12.766;2023-05-07T03:47:11;97941.31;;;11.58;89.14
14242;BME280;7205;50.864;12.766;2023-05-07T03:49:39;97948.28;;;11.59;89.06
14242;BME280;7205;50.864;12.766;2023-05-07T03:52:06;97948.44;;;11.57;89.26
14242;BME280;7205;50.864;12.766;2023-05-07T03:54:34;97950.44;;;11.55;89.16
14242;BME280;7205;50.864;12.766;2023-05-07T03:57:01;97955.09;;;11.53;88.73
14242;BME280;7205;50.864;12.766;2023-05-07T03:59:28;97961.53;;;11.51;89.28
14242;BME280;7205;50.864;12.766;2023-05-07T04:01:56;97960.72;;;11.50;89.06
14242;BME280;7205;50.864;12.766;2023-05-07T04:04:24;97971.31;;;11.50;89.38
14242;BME280;7205;50.864;12.766;2023-05-07T04:06:51;97966.63;;;11.52;89.62
14242;BME280;7205;50.864;12.766;2023-05-07T04:09:18;97962.84;;;11.55;89.54
14242;BME280;7205;50.864;12.766;2023-05-07T04:11:48;97960.69;;;11.58;89.67
14242;BME280;7205;50.864;12.766;2023-05-07T04:14:15;97948.72;;;11.62;89.52
14242;BME280;7205;50.864;12.766;2023-05-07T04:16:42;97951.25;;;11.64;89.83
14242;BME280;7205;50.864;12.766;2023-05-07T04:19:09;97953.22;;;11.62;89.31
14242;BME280;7205;50.864;12.766;2023-05-07T04:21:37;97950.28;;;11.57;88.89
14242;BME280;7205;50.864;12.766;2023-05-07T04:24:04;97967.78;;;11.58;89.17
14242;BME280;7205;50.864;12.766;2023-05-07T04:26:32;97969.75;;;11.56;89.50
14242;BME280;7205;50.864;12.766;2023-05-07T04:29:01;97968.78;;;11.57;88.93
14242;BME280;7205;50.864;12.766;2023-05-07T04:31:31;97963.03;;;11.53;88.90
14242;BME280;7205;50.864;12.766;2023-05-07T04:33:58;97960.53;;;11.52;89.59
14242;BME280;7205;50.864;12.766;2023-05-07T04:36:26;97964.00;;;11.52;89.52
14242;BME280;7205;50.864;12.766;2023-05-07T04:39:02;97974.44;;;11.54;89.66
14242;BME280;7205;50.864;12.766;2023-05-07T04:41:29;97970.94;;;11.53;89.41
14242;BME280;7205;50.864;12.766;2023-05-07T04:43:56;97982.81;;;11.57;89.50
14242;BME280;7205;50.864;12.766;2023-05-07T04:46:26;97980.03;;;11.59;89.98
14242;BME280;7205;50.864;12.766;2023-05-07T04:48:56;97975.34;;;11.61;89.41
14242;BME280;7205;50.864;12.766;2023-05-07T04:51:23;97975.88;;;11.64;90.04
14242;BME280;7205;50.864;12.766;2023-05-07T04:53:50;97976.34;;;11.68;89.72
14242;BME280;7205;50.864;12.766;2023-05-07T04:56:17;97972.56;;;11.70;89.35
14242;BME280;7205;50.864;12.766;2023-05-07T04:58:45;97977.50;;;11.73;89.22
14242;BME280;7205;50.864;12.766;2023-05-07T05:01:14;97975.03;;;11.72;88.58
14242;BME280;7205;50.864;12.766;2023-05-07T05:03:42;97979.47;;;11.71;88.48
14242;BME280;7205;50.864;12.766;2023-05-07T05:06:09;97985.59;;;11.72;88.53
14242;BME280;7205;50.864;12.766;2023-05-07T05:08:36;97987.41;;;11.71;88.36
14242;BME280;7205;50.864;12.766;2023-05-07T05:11:04;97993.38;;;11.73;88.66
14242;BME280;7205;50.864;12.766;2023-05-07T05:13:33;97995.66;;;11.76;88.99
14242;BME280;7205;50.864;12.766;2023-05-07T05:16:05;97989.34;;;11.77;88.58
14242;BME280;7205;50.864;12.766;2023-05-07T05:18:32;97986.72;;;11.77;88.04
14242;BME280;7205;50.864;12.766;2023-05-07T05:21:00;97996.50;;;11.77;87.97
14242;BME280;7205;50.864;12.766;2023-05-07T05:23:28;97985.25;;;11.75;87.82
14242;BME280;7205;50.864;12.766;2023-05-07T05:25:56;97987.06;;;11.74;88.04
14242;BME280;7205;50.864;12.766;2023-05-07T05:28:25;97994.34;;;11.72;87.69
14242;BME280;7205;50.864;12.766;2023-05-07T05:30:53;97998.66;;;11.73;87.93
14242;BME280;7205;50.864;12.766;2023-05-07T05:33:21;98016.34;;;11.73;87.84
14242;BME280;7205;50.864;12.766;2023-05-07T05:35:49;98012.06;;;11.72;87.71
14242;BME280;7205;50.864;12.766;2023-05-07T05:38:17;98012.22;;;11.70;87.71
14242;BME280;7205;50.864;12.766;2023-05-07T05:40:44;98010.56;;;11.69;87.72
14242;BME280;7205;50.864;12.766;2023-05-07T05:43:11;98015.50;;;11.72;87.66
14242;BME280;7205;50.864;12.766;2023-05-07T05:45:38;98020.47;;;11.75;88.19
14242;BME280;7205;50.864;12.766;2023-05-07T05:48:05;98017.66;;;11.77;88.01
14242;BME280;7205;50.864;12.766;2023-05-07T05:50:33;98022.41;;;11.81;87.91
14242;BME280;7205;50.864;12.766;2023-05-07T05:53:01;98025.06;;;11.81;87.62
14242;BME280;7205;50.864;12.766;2023-05-07T05:55:30;98019.78;;;11.81;87.66
14242;BME280;7205;50.864;12.766;2023-05-07T05:57:57;98021.59;;;11.81;87.20
14242;BME280;7205;50.864;12.766;2023-05-07T06:00:25;98015.97;;;11.84;87.48
14242;BME280;7205;50.864;12.766;2023-05-07T06:03:00;98017.38;;;11.94;87.95
14242;BME280;7205;50.864;12.766;2023-05-07T06:05:27;98022.63;;;12.02;87.62
14242;BME280;7205;50.864;12.766;2023-05-07T06:07:56;98031.34;;;12.11;87.55
14242;BME280;7205;50.864;12.766;2023-05-07T06:10:23;98020.06;;;12.17;86.99
14242;BME280;7205;50.864;12.766;2023-05-07T06:12:53;98016.53;;;12.24;86.50
14242;BME280;7205;50.864;12.766;2023-05-07T06:15:20;98021.13;;;12.30;86.38
14242;BME280;7205;50.864;12.766;2023-05-07T06:17:47;98024.69;;;12.37;85.73
14242;BME280;7205;50.864;12.766;2023-05-07T06:20:14;98023.16;;;12.43;85.13
14242;BME280;7205;50.864;12.766;2023-05-07T06:22:41;98028.47;;;12.43;84.59
14242;BME280;7205;50.864;12.766;2023-05-07T06:25:10;98018.88;;;12.42;83.35
14242;BME280;7205;50.864;12.766;2023-05-07T06:27:37;98022.53;;;12.41;83.24
14242;BME280;7205;50.864;12.766;2023-05-07T06:30:07;98029.31;;;12.43;83.49
14242;BME280;7205;50.864;12.766;2023-05-07T06:32:34;98026.28;;;12.46;83.62
14242;BME280;7205;50.864;12.766;2023-05-07T06:35:01;98032.72;;;12.52;83.37
14242;BME280;7205;50.864;12.766;2023-05-07T06:37:28;98026.22;;;12.54;82.96
14242;BME280;7205;50.864;12.766;2023-05-07T06:39:59;98033.38;;;12.54;82.59
14242;BME280;7205;50.864;12.766;2023-05-07T06:42:27;98038.81;;;12.52;81.81
14242;BME280;7205;50.864;12.766;2023-05-07T06:44:58;98036.72;;;12.48;81.60
14242;BME280;7205;50.864;12.766;2023-05-07T06:47:30;98043.03;;;12.47;81.60
14242;BME280;7205;50.864;12.766;2023-05-07T06:49:57;98043.03;;;12.47;81.41
14242;BME280;7205;50.864;12.766;2023-05-07T06:52:27;98043.19;;;12.45;81.28
14242;BME280;7205;50.864;12.766;2023-05-07T06:54:54;98048.13;;;12.48;81.37
14242;BME280;7205;50.864;12.766;2023-05-07T06:57:25;98051.72;;;12.55;81.57
14242;BME280;7205;50.864;12.766;2023-05-07T06:59:52;98057.63;;;12.66;81.98
14242;BME280;7205;50.864;12.766;2023-05-07T07:02:19;98050.06;;;12.77;81.68
14242;BME280;7205;50.864;12.766;2023-05-07T07:04:49;98048.63;;;12.89;81.19
14242;BME280;7205;50.864;12.766;2023-05-07T07:07:17;98048.88;;;13.02;80.95
14242;BME280;7205;50.864;12.766;2023-05-07T07:09:45;98045.25;;;13.18;81.11
14242;BME280;7205;50.864;12.766;2023-05-07T07:12:15;98050.56;;;13.32;80.35
14242;BME280;7205;50.864;12.766;2023-05-07T07:14:42;98051.28;;;13.41;79.28
14242;BME280;7205;50.864;12.766;2023-05-07T07:17:09;98052.75;;;13.43;77.69
14242;BME280;7205;50.864;12.766;2023-05-07T07:19:36;98056.59;;;13.41;76.23
14242;BME280;7205;50.864;12.766;2023-05-07T07:22:05;98052.19;;;13.33;75.54
14242;BME280;7205;50.864;12.766;2023-05-07T07:24:32;98054.75;;;13.27;75.42
14242;BME280;7205;50.864;12.766;2023-05-07T07:27:02;98049.63;;;13.25;75.82
14242;BME280;7205;50.864;12.766;2023-05-07T07:29:32;98053.13;;;13.26;75.64
14242;BME280;7205;50.864;12.766;2023-05-07T07:31:58;98056.03;;;13.31;75.88
14242;BME280;7205;50.864;12.766;2023-05-07T07:34:26;98056.88;;;13.46;76.51
14242;BME280;7205;50.864;12.766;2023-05-07T07:36:52;98057.13;;;13.65;76.62
14242;BME280;7205;50.864;12.766;2023-05-07T07:39:21;98057.94;;;13.80;75.49
14242;BME280;7205;50.864;12.766;2023-05-07T07:41:50;98057.66;;;13.90;74.38
14242;BME280;7205;50.864;12.766;2023-05-07T07:44:19;98058.94;;;13.94;73.53
14242;BME280;7205;50.864;12.766;2023-05-07T07:46:50;98057.72;;;13.97;72.71
14242;BME280;7205;50.864;12.766;2023-05-07T07:49:18;98055.91;;;13.97;72.08
14242;BME280;7205;50.864;12.766;2023-05-07T07:51:46;98064.88;;;13.96;71.49
14242;BME280;7205;50.864;12.766;2023-05-07T07:54:13;98050.41;;;13.99;71.87
14242;BME280;7205;50.864;12.766;2023-05-07T07:56:42;98055.59;;;14.07;71.72
14242;BME280;7205;50.864;12.766;2023-05-07T07:59:10;98045.88;;;14.14;71.57
14242;BME280;7205;50.864;12.766;2023-05-07T08:01:40;98055.59;;;14.21;70.99
14242;BME280;7205;50.864;12.766;2023-05-07T08:04:07;98059.44;;;14.33;71.08
14242;BME280;7205;50.864;12.766;2023-05-07T08:06:37;98052.97;;;14.42;70.36
14242;BME280;7205;50.864;12.766;2023-05-07T08:09:05;98056.31;;;14.51;69.91
14242;BME280;7205;50.864;12.766;2023-05-07T08:11:32;98071.34;;;14.58;69.70
14242;BME280;7205;50.864;12.766;2023-05-07T08:14:00;98057.72;;;14.68;69.35
14242;BME280;7205;50.864;12.766;2023-05-07T08:16:28;98059.06;;;14.78;68.67
14242;BME280;7205;50.864;12.766;2023-05-07T08:18:55;98063.78;;;14.83;67.44
14242;BME280;7205;50.864;12.766;2023-05-07T08:21:22;98065.22;;;14.85;66.53
14242;BME280;7205;50.864;12.766;2023-05-07T08:23:49;98069.16;;;14.89;66.53
14242;BME280;7205;50.864;12.766;2023-05-07T08:26:16;98064.47;;;14.91;66.31
14242;BME280;7205;50.864;12.766;2023-05-07T08:28:43;98067.16;;;14.91;65.74
14242;BME280;7205;50.864;12.766;2023-05-07T08:31:11;98075.25;;;14.83;64.49
14242;BME280;7205;50.864;12.766;2023-05-07T08:33:40;98075.38;;;14.75;64.75
14242;BME280;7205;50.864;12.766;2023-05-07T08:36:07;98067.34;;;14.69;64.35
14242;BME280;7205;50.864;12.766;2023-05-07T08:38:34;98073.88;;;14.66;64.56
14242;BME280;7205;50.864;12.766;2023-05-07T08:41:01;98076.53;;;14.66;64.70
14242;BME280;7205;50.864;12.766;2023-05-07T08:43:32;98077.31;;;14.67;64.27
14242;BME280;7205;50.864;12.766;2023-05-07T08:46:01;98071.06;;;14.74;64.67
14242;BME280;7205;50.864;12.766;2023-05-07T08:48:32;98075.13;;;14.91;64.92
14242;BME280;7205;50.864;12.766;2023-05-07T08:51:16;98077.34;;;15.16;64.84
14242;BME280;7205;50.864;12.766;2023-05-07T08:53:45;98072.38;;;15.34;62.94
14242;BME280;7205;50.864;12.766;2023-05-07T08:56:16;98079.78;;;15.38;61.05
14242;BME280;7205;50.864;12.766;2023-05-07T08:58:45;98076.28;;;15.38;60.25
14242;BME280;7205;50.864;12.766;2023-05-07T09:01:14;98079.78;;;15.38;59.91
14242;BME280;7205;50.864;12.766;2023-05-07T09:03:49;98083.91;;;15.41;59.34
14242;BME280;7205;50.864;12.766;2023-05-07T09:06:19;98071.03;;;15.44;59.09
14242;BME280;7205;50.864;12.766;2023-05-07T09:08:49;98083.22;;;15.60;59.80
14242;BME280;7205;50.864;12.766;2023-05-07T09:11:20;98079.91;;;15.85;60.08
14242;BME280;7205;50.864;12.766;2023-05-07T09:13:48;98079.38;;;16.09;59.14
14242;BME280;7205;50.864;12.766;2023-05-07T09:16:15;98072.47;;;16.28;58.43
14242;BME280;7205;50.864;12.766;2023-05-07T09:18:46;98071.28;;;16.44;57.66
14242;BME280;7205;50.864;12.766;2023-05-07T09:21:15;98072.19;;;16.51;56.55
14242;BME280;7205;50.864;12.766;2023-05-07T09:23:43;98071.16;;;16.58;56.07
14242;BME280;7205;50.864;12.766;2023-05-07T09:26:10;98071.78;;;16.67;56.06
14242;BME280;7205;50.864;12.766;2023-05-07T09:28:40;98074.66;;;16.78;55.92
14242;BME280;7205;50.864;12.766;2023-05-07T09:31:10;98070.16;;;16.92;55.65
14242;BME280;7205;50.864;12.766;2023-05-07T09:33:37;98077.38;;;17.04;55.20
14242;BME280;7205;50.864;12.766;2023-05-07T09:36:08;98083.13;;;17.14;55.06
14242;BME280;7205;50.864;12.766;2023-05-07T09:38:37;98086.00;;;17.26;55.07
14242;BME280;7205;50.864;12.766;2023-05-07T09:41:06;98077.34;;;17.30;54.06
14242;BME280;7205;50.864;12.766;2023-05-07T09:43:40;98080.66;;;17.32;54.06
14242;BME280;7205;50.864;12.766;2023-05-07T09:46:12;98077.97;;;17.39;53.94
14242;BME280;7205;50.864;12.766;2023-05-07T09:48:43;98080.22;;;17.48;53.77
14242;BME280;7205;50.864;12.766;2023-05-07T09:51:17;98072.63;;;17.59;52.66
14242;BME280;7205;50.864;12.766;2023-05-07T09:53:45;98081.44;;;17.66;52.45
14242;BME280;7205;50.864;12.766;2023-05-07T09:56:26;98077.13;;;17.71;51.87
14242;BME280;7205;50.864;12.766;2023-05-07T09:58:54;98072.38;;;17.80;52.29
14242;BME280;7205;50.864;12.766;2023-05-07T10:01:24;98084.88;;;17.92;52.19
14242;BME280;7205;50.864;12.766;2023-05-07T10:03:52;98080.69;;;18.09;51.60
14242;BME280;7205;50.864;12.766;2023-05-07T10:06:22;98075.47;;;18.27;51.20
14242;BME280;7205;50.864;12.766;2023-05-07T10:08:49;98085.72;;;18.37;49.68
14242;BME280;7205;50.864;12.766;2023-05-07T10:11:17;98083.69;;;18.32;49.18
14242;BME280;7205;50.864;12.766;2023-05-07T10:13:46;98073.84;;;18.26;48.96
14242;BME280;7205;50.864;12.766;2023-05-07T10:16:15;98076.72;;;18.25;49.33
14242;BME280;7205;50.864;12.766;2023-05-07T10:18:46;98076.47;;;18.33;49.11
14242;BME280;7205;50.864;12.766;2023-05-07T10:21:23;98076.47;;;18.39;48.97
14242;BME280;7205;50.864;12.766;2023-05-07T10:23:58;98081.78;;;18.46;48.96
14242;BME280;7205;50.864;12.766;2023-05-07T10:26:29;98086.91;;;18.47;48.22
14242;BME280;7205;50.864;12.766;2023-05-07T10:28:59;98094.72;;;18.49;48.50
14242;BME280;7205;50.864;12.766;2023-05-07T10:31:44;98094.78;;;18.42;47.58
14242;BME280;7205;50.864;12.766;2023-05-07T10:34:19;98098.50;;;18.35;48.03
14242;BME280;7205;50.864;12.766;2023-05-07T10:36:49;98085.13;;;18.35;48.10
14242;BME280;7205;50.864;12.766;2023-05-07T10:39:19;98085.13;;;18.41;48.31
14242;BME280;7205;50.864;12.766;2023-05-07T10:41:48;98073.78;;;18.46;48.00
14242;BME280;7205;50.864;12.766;2023-05-07T10:44:25;98076.25;;;18.41;47.68
14242;BME280;7205;50.864;12.766;2023-05-07T10:47:06;98063.59;;;18.23;47.41
14242;BME280;7205;50.864;12.766;2023-05-07T10:49:37;98059.75;;;18.06;47.43
14242;BME280;7205;50.864;12.766;2023-05-07T10:52:16;98068.44;;;17.89;48.07
14242;BME280;7205;50.864;12.766;2023-05-07T10:55:19;98069.50;;;17.75;48.33
14242;BME280;7205;50.864;12.766;2023-05-07T10:58:26;98058.06;;;17.55;48.79
14242;BME280;7205;50.864;12.766;2023-05-07T11:01:14;98058.66;;;17.37;49.29
14242;BME280;7205;50.864;12.766;2023-05-07T11:04:15;98070.78;;;17.26;50.69
14242;BME280;7205;50.864;12.766;2023-05-07T11:10:04;98078.41;;;17.29;50.20
14242;BME280;7205;50.864;12.766;2023-05-07T11:12:54;98074.06;;;17.15;49.89
14242;BME280;7205;50.864;12.766;2023-05-07T11:15:36;98073.88;;;17.04;50.40
14242;BME280;7205;50.864;12.766;2023-05-07T11:18:10;98063.41;;;16.96;50.40
14242;BME280;7205;50.864;12.766;2023-05-07T11:21:03;98076.13;;;16.87;50.72
14242;BME280;7205;50.864;12.766;2023-05-07T11:23:58;98079.78;;;16.73;50.74
14242;BME280;7205;50.864;12.766;2023-05-07T11:26:47;98070.75;;;16.61;51.25
14242;BME280;7205;50.864;12.766;2023-05-07T11:29:19;98073.81;;;16.52;51.51
14242;BME280;7205;50.864;12.766;2023-05-07T11:31:50;98076.00;;;16.42;51.84
14242;BME280;7205;50.864;12.766;2023-05-07T11:34:21;98080.28;;;16.36;52.27
14242;BME280;7205;50.864;12.766;2023-05-07T11:36:49;98075.56;;;16.31;52.33
14242;BME280;7205;50.864;12.766;2023-05-07T11:39:27;98066.50;;;16.26;53.06
14242;BME280;7205;50.864;12.766;2023-05-07T11:41:55;98071.28;;;16.37;53.83
14242;BME280;7205;50.864;12.766;2023-05-07T11:44:22;98067.84;;;16.50;53.54
14242;BME280;7205;50.864;12.766;2023-05-07T11:46:49;98075.47;;;16.59;53.32
14242;BME280;7205;50.864;12.766;2023-05-07T11:49:16;98074.25;;;16.62;52.78
14242;BME280;7205;50.864;12.766;2023-05-07T11:51:44;98076.50;;;16.65;52.74
14242;BME280;7205;50.864;12.766;2023-05-07T11:54:15;98064.59;;;16.61;52.38
14242;BME280;7205;50.864;12.766;2023-05-07T11:56:43;98074.22;;;16.55;52.30
14242;BME280;7205;50.864;12.766;2023-05-07T11:59:12;98063.97;;;16.46;52.62
14242;BME280;7205;50.864;12.766;2023-05-07T12:01:45;98061.03;;;16.41;53.06
14242;BME280;7205;50.864;12.766;2023-05-07T12:04:12;98063.69;;;16.34;53.16
14242;BME280;7205;50.864;12.766;2023-05-07T12:06:40;98069.59;;;16.29;53.18
14242;BME280;7205;50.864;12.766;2023-05-07T12:09:07;98064.28;;;16.29;53.71
14242;BME280;7205;50.864;12.766;2023-05-07T12:11:36;98068.00;;;16.35;53.91
14242;BME280;7205;50.864;12.766;2023-05-07T12:14:05;98070.88;;;16.40;54.35
14242;BME280;7205;50.864;12.766;2023-05-07T12:16:33;98057.19;;;16.50;54.55
14242;BME280;7205;50.864;12.766;2023-05-07T12:19:00;98063.56;;;16.62;54.31
14242;BME280;7205;50.864;12.766;2023-05-07T12:21:27;98065.44;;;16.68;53.47
14242;BME280;7205;50.864;12.766;2023-05-07T12:23:54;98065.66;;;16.73;53.70
14242;BME280;7205;50.864;12.766;2023-05-07T12:26:21;98065.88;;;16.78;53.39
14242;BME280;7205;50.864;12.766;2023-05-07T12:28:49;98062.38;;;16.84;53.27
14242;BME280;7205;50.864;12.766;2023-05-07T12:31:16;98064.00;;;16.85;52.48
14242;BME280;7205;50.864;12.766;2023-05-07T12:33:45;98079.00;;;16.79;52.36
14242;BME280;7205;50.864;12.766;2023-05-07T12:36:12;98079.19;;;16.78;52.41
14242;BME280;7205;50.864;12.766;2023-05-07T12:38:40;98073.03;;;16.77;52.05
14242;BME280;7205;50.864;12.766;2023-05-07T12:41:08;98069.31;;;16.72;51.89
14242;BME280;7205;50.864;12.766;2023-05-07T12:43:35;98077.97;;;16.74;52.39
14242;BME280;7205;50.864;12.766;2023-05-07T12:46:03;98074.03;;;16.76;52.21
14242;BME280;7205;50.864;12.766;2023-05-07T12:48:31;98069.97;;;16.87;52.51
14242;BME280;7205;50.864;12.766;2023-05-07T12:51:00;98071.63;;;17.01;52.62
14242;BME280;7205;50.864;12.766;2023-05-07T12:53:28;98057.66;;;17.12;51.59
14242;BME280;7205;50.864;12.766;2023-05-07T12:55:57;98052.09;;;17.20;52.04
14242;BME280;7205;50.864;12.766;2023-05-07T12:58:26;98055.78;;;17.38;52.18
14242;BME280;7205;50.864;12.766;2023-05-07T13:00:54;98056.38;;;17.60;51.83
14242;BME280;7205;50.864;12.766;2023-05-07T13:03:25;98056.13;;;17.81;51.22
14242;BME280;7205;50.864;12.766;2023-05-07T13:05:54;98067.75;;;18.06;51.23
14242;BME280;7205;50.864;12.766;2023-05-07T13:08:30;98064.59;;;18.22;50.26
14242;BME280;7205;50.864;12.766;2023-05-07T13:10:58;98056.13;;;18.32;49.36
14242;BME280;7205;50.864;12.766;2023-05-07T13:13:28;98065.38;;;18.29;48.84
14242;BME280;7205;50.864;12.766;2023-05-07T13:15:55;98062.56;;;18.18;48.60